sensor_id;sensor_type;location;lat;lon;timestamp;P1;durP1;ratioP1;P2;durP2;ratioP2
73919;SDS011;62266;53.348;-1.496;2023-05-23T00:00:36;6.57;;;2.70;;
73919;SDS011;62266;53.348;-1.496;2023-05-23T00:03:20;4.57;;;2.60;;
73919;SDS011;62266;53.348;-1.496;2023-05-23T00:06:05;5.35;;;2.90;;
73919;SDS011;62266;53.348;-1.496;2023-05-23T00:08:50;6.47;;;3.30;;
73919;SDS011;62266;53.348;-1.496;2023-05-23T00:11:34;7.72;;;3.05;;
73919;SDS011;62266;53.348;-1.496;2023-05-23T00:14:19;5.60;;;3.13;;
73919;SDS011;62266;53.348;-1.496;2023-05-23T00:17:04;5.20;;;2.73;;
73919;SDS011;62266;53.348;-1.496;2023-05-23T00:19:48;5.35;;;2.90;;
73919;SDS011;62266;53.348;-1.496;2023-05-23T00:22:32;6.85;;;3.20;;
73919;SDS011;62266;53.348;-1.496;2023-05-23T00:25:16;6.78;;;2.97;;
73919;SDS011;62266;53.348;-1.496;2023-05-23T00:28:01;5.28;;;3.13;;
73919;SDS011;62266;53.348;-1.496;2023-05-23T00:30:45;6.83;;;3.60;;
73919;SDS011;62266;53.348;-1.496;2023-05-23T00:33:31;5.80;;;3.10;;
73919;SDS011;62266;53.348;-1.496;2023-05-23T00:36:16;7.55;;;3.70;;
73919;SDS011;62266;53.348;-1.496;2023-05-23T00:39:01;6.28;;;3.70;;
73919;SDS011;62266;53.348;-1.496;2023-05-23T00:41:48;7.45;;;3.78;;
73919;SDS011;62266;53.348;-1.496;2023-05-23T00:44:33;4.60;;;3.07;;
73919;SDS011;62266;53.348;-1.496;2023-05-23T00:47:17;6.38;;;3.35;;
73919;SDS011;62266;53.348;-1.496;2023-05-23T00:50:02;6.28;;;3.35;;
73919;SDS011;62266;53.348;-1.496;2023-05-23T00:52:46;6.65;;;3.75;;
73919;SDS011;62266;53.348;-1.496;2023-05-23T00:55:32;6.80;;;3.42;;
73919;SDS011;62266;53.348;-1.496;2023-05-23T00:58:16;9.13;;;3.50;;
73919;SDS011;62266;53.348;-1.496;2023-05-23T01:01:01;5.57;;;3.28;;
73919;SDS011;62266;53.348;-1.496;2023-05-23T01:03:45;4.97;;;3.30;;
73919;SDS011;62266;53.348;-1.496;2023-05-23T01:06:30;6.00;;;3.20;;
73919;SDS011;62266;53.348;-1.496;2023-05-23T01:09:16;6.07;;;3.47;;
73919;SDS011;62266;53.348;-1.496;2023-05-23T01:12:23;6.07;;;2.90;;
73919;SDS011;62266;53.348;-1.496;2023-05-23T01:15:11;3.92;;;2.65;;
73919;SDS011;62266;53.348;-1.496;2023-05-23T01:20:44;5.47;;;2.67;;
73919;SDS011;62266;53.348;-1.496;2023-05-23T01:29:42;6.30;;;2.70;;
73919;SDS011;62266;53.348;-1.496;2023-05-23T01:32:29;3.90;;;2.08;;
73919;SDS011;62266;53.348;-1.496;2023-05-23T01:35:20;4.07;;;2.42;;
73919;SDS011;62266;53.348;-1.496;2023-05-23T01:38:06;4.05;;;2.38;;
73919;SDS011;62266;53.348;-1.496;2023-05-23T01:40:50;4.30;;;2.40;;
73919;SDS011;62266;53.348;-1.496;2023-05-23T01:43:34;4.88;;;2.40;;
73919;SDS011;62266;53.348;-1.496;2023-05-23T01:46:19;4.53;;;2.85;;
73919;SDS011;62266;53.348;-1.496;2023-05-23T01:49:05;4.38;;;2.33;;
73919;SDS011;62266;53.348;-1.496;2023-05-23T01:54:32;4.27;;;2.20;;
73919;SDS011;62266;53.348;-1.496;2023-05-23T01:57:18;3.35;;;2.10;;
73919;SDS011;62266;53.348;-1.496;2023-05-23T02:00:03;4.38;;;2.42;;
73919;SDS011;62266;53.348;-1.496;2023-05-23T02:02:49;4.95;;;1.95;;
73919;SDS011;62266;53.348;-1.496;2023-05-23T02:05:33;5.38;;;2.00;;
73919;SDS011;62266;53.348;-1.496;2023-05-23T02:08:17;6.13;;;2.50;;
73919;SDS011;62266;53.348;-1.496;2023-05-23T02:11:01;3.60;;;2.10;;
73919;SDS011;62266;53.348;-1.496;2023-05-23T02:13:46;5.35;;;2.03;;
73919;SDS011;62266;53.348;-1.496;2023-05-23T02:16:30;5.13;;;2.08;;
73919;SDS011;62266;53.348;-1.496;2023-05-23T02:19:15;4.55;;;2.15;;
73919;SDS011;62266;53.348;-1.496;2023-05-23T02:21:59;6.13;;;2.20;;
73919;SDS011;62266;53.348;-1.496;2023-05-23T02:24:44;5.68;;;2.08;;
73919;SDS011;62266;53.348;-1.496;2023-05-23T02:27:28;4.10;;;2.00;;
73919;SDS011;62266;53.348;-1.496;2023-05-23T02:30:13;4.50;;;2.35;;
73919;SDS011;62266;53.348;-1.496;2023-05-23T02:32:57;4.25;;;1.92;;
73919;SDS011;62266;53.348;-1.496;2023-05-23T02:38:27;4.95;;;2.50;;
73919;SDS011;62266;53.348;-1.496;2023-05-23T02:41:13;4.00;;;2.20;;
73919;SDS011;62266;53.348;-1.496;2023-05-23T02:49:24;3.17;;;1.70;;
73919;SDS011;62266;53.348;-1.496;2023-05-23T02:52:09;5.32;;;2.38;;
73919;SDS011;62266;53.348;-1.496;2023-05-23T02:54:53;4.18;;;1.75;;
73919;SDS011;62266;53.348;-1.496;2023-05-23T02:57:37;3.85;;;1.90;;
73919;SDS011;62266;53.348;-1.496;2023-05-23T03:00:21;4.32;;;2.10;;
73919;SDS011;62266;53.348;-1.496;2023-05-23T03:03:05;4.23;;;2.07;;
73919;SDS011;62266;53.348;-1.496;2023-05-23T03:05:49;3.22;;;1.95;;
73919;SDS011;62266;53.348;-1.496;2023-05-23T03:08:34;3.97;;;1.83;;
73919;SDS011;62266;53.348;-1.496;2023-05-23T03:11:18;4.93;;;2.22;;
73919;SDS011;62266;53.348;-1.496;2023-05-23T03:14:02;6.68;;;2.08;;
73919;SDS011;62266;53.348;-1.496;2023-05-23T03:16:46;4.43;;;2.17;;
73919;SDS011;62266;53.348;-1.496;2023-05-23T03:19:30;6.25;;;2.05;;
73919;SDS011;62266;53.348;-1.496;2023-05-23T03:22:14;4.47;;;2.50;;
73919;SDS011;62266;53.348;-1.496;2023-05-23T03:24:59;7.78;;;1.98;;
73919;SDS011;62266;53.348;-1.496;2023-05-23T03:27:43;6.95;;;2.10;;
73919;SDS011;62266;53.348;-1.496;2023-05-23T03:30:27;3.30;;;2.10;;
73919;SDS011;62266;53.348;-1.496;2023-05-23T03:33:11;3.97;;;2.00;;
73919;SDS011;62266;53.348;-1.496;2023-05-23T03:35:55;5.38;;;2.15;;
73919;SDS011;62266;53.348;-1.496;2023-05-23T03:38:40;5.75;;;2.30;;
73919;SDS011;62266;53.348;-1.496;2023-05-23T03:41:25;4.20;;;2.15;;
73919;SDS011;62266;53.348;-1.496;2023-05-23T03:44:09;4.80;;;2.47;;
73919;SDS011;62266;53.348;-1.496;2023-05-23T03:46:53;4.90;;;2.42;;
73919;SDS011;62266;53.348;-1.496;2023-05-23T03:49:37;4.30;;;2.42;;
73919;SDS011;62266;53.348;-1.496;2023-05-23T03:52:22;5.07;;;2.33;;
73919;SDS011;62266;53.348;-1.496;2023-05-23T03:55:06;4.18;;;2.00;;
73919;SDS011;62266;53.348;-1.496;2023-05-23T03:57:52;3.60;;;2.10;;
73919;SDS011;62266;53.348;-1.496;2023-05-23T04:00:36;3.85;;;1.90;;
73919;SDS011;62266;53.348;-1.496;2023-05-23T04:03:20;5.20;;;2.00;;
73919;SDS011;62266;53.348;-1.496;2023-05-23T04:06:04;5.78;;;2.50;;
73919;SDS011;62266;53.348;-1.496;2023-05-23T04:08:49;4.18;;;2.53;;
73919;SDS011;62266;53.348;-1.496;2023-05-23T04:11:33;4.57;;;2.33;;
73919;SDS011;62266;53.348;-1.496;2023-05-23T04:14:17;5.50;;;2.50;;
73919;SDS011;62266;53.348;-1.496;2023-05-23T04:17:05;6.85;;;2.95;;
73919;SDS011;62266;53.348;-1.496;2023-05-23T04:19:51;7.32;;;2.60;;
73919;SDS011;62266;53.348;-1.496;2023-05-23T04:22:36;10.80;;;3.05;;
73919;SDS011;62266;53.348;-1.496;2023-05-23T04:25:21;4.43;;;2.37;;
73919;SDS011;62266;53.348;-1.496;2023-05-23T04:28:05;4.63;;;2.38;;
73919;SDS011;62266;53.348;-1.496;2023-05-23T04:30:53;5.43;;;2.75;;
73919;SDS011;62266;53.348;-1.496;2023-05-23T04:33:38;3.83;;;2.40;;
73919;SDS011;62266;53.348;-1.496;2023-05-23T04:36:22;6.40;;;2.40;;
73919;SDS011;62266;53.348;-1.496;2023-05-23T04:39:08;4.70;;;2.20;;
73919;SDS011;62266;53.348;-1.496;2023-05-23T04:41:53;5.43;;;2.40;;
73919;SDS011;62266;53.348;-1.496;2023-05-23T04:44:37;5.60;;;1.90;;
73919;SDS011;62266;53.348;-1.496;2023-05-23T04:47:21;3.15;;;1.80;;
73919;SDS011;62266;53.348;-1.496;2023-05-23T04:50:07;4.28;;;2.60;;
73919;SDS011;62266;53.348;-1.496;2023-05-23T04:52:52;5.60;;;2.40;;
73919;SDS011;62266;53.348;-1.496;2023-05-23T04:55:36;3.60;;;2.10;;
73919;SDS011;62266;53.348;-1.496;2023-05-23T04:58:20;6.18;;;2.47;;
73919;SDS011;62266;53.348;-1.496;2023-05-23T05:01:04;7.07;;;2.30;;
73919;SDS011;62266;53.348;-1.496;2023-05-23T05:03:49;5.47;;;2.35;;
73919;SDS011;62266;53.348;-1.496;2023-05-23T05:06:33;5.27;;;2.50;;
73919;SDS011;62266;53.348;-1.496;2023-05-23T05:09:17;7.15;;;2.38;;
73919;SDS011;62266;53.348;-1.496;2023-05-23T05:12:02;6.70;;;2.25;;
73919;SDS011;62266;53.348;-1.496;2023-05-23T05:14:46;5.38;;;2.45;;
73919;SDS011;62266;53.348;-1.496;2023-05-23T05:17:30;5.00;;;2.30;;
73919;SDS011;62266;53.348;-1.496;2023-05-23T05:20:19;7.17;;;2.20;;
73919;SDS011;62266;53.348;-1.496;2023-05-23T05:23:04;7.03;;;2.42;;
73919;SDS011;62266;53.348;-1.496;2023-05-23T05:25:48;4.55;;;2.28;;
73919;SDS011;62266;53.348;-1.496;2023-05-23T05:28:33;5.57;;;2.45;;
73919;SDS011;62266;53.348;-1.496;2023-05-23T05:31:17;8.60;;;2.15;;
73919;SDS011;62266;53.348;-1.496;2023-05-23T05:34:01;6.30;;;2.40;;
73919;SDS011;62266;53.348;-1.496;2023-05-23T05:36:45;5.47;;;2.28;;
73919;SDS011;62266;53.348;-1.496;2023-05-23T05:39:33;8.20;;;2.83;;
73919;SDS011;62266;53.348;-1.496;2023-05-23T05:42:20;5.47;;;2.80;;
73919;SDS011;62266;53.348;-1.496;2023-05-23T05:45:13;5.20;;;2.08;;
73919;SDS011;62266;53.348;-1.496;2023-05-23T05:48:05;10.40;;;2.20;;
73919;SDS011;62266;53.348;-1.496;2023-05-23T05:50:52;4.93;;;2.20;;
73919;SDS011;62266;53.348;-1.496;2023-05-23T05:53:48;6.50;;;2.72;;
73919;SDS011;62266;53.348;-1.496;2023-05-23T05:56:36;8.40;;;2.83;;
73919;SDS011;62266;53.348;-1.496;2023-05-23T05:59:28;5.38;;;2.55;;
73919;SDS011;62266;53.348;-1.496;2023-05-23T06:02:15;8.17;;;2.57;;
73919;SDS011;62266;53.348;-1.496;2023-05-23T06:05:54;6.72;;;2.25;;
73919;SDS011;62266;53.348;-1.496;2023-05-23T06:08:59;6.00;;;2.50;;
73919;SDS011;62266;53.348;-1.496;2023-05-23T06:11:47;4.15;;;2.10;;
73919;SDS011;62266;53.348;-1.496;2023-05-23T06:18:19;5.30;;;2.50;;
73919;SDS011;62266;53.348;-1.496;2023-05-23T06:21:03;5.18;;;1.90;;
73919;SDS011;62266;53.348;-1.496;2023-05-23T06:23:48;5.75;;;2.10;;
73919;SDS011;62266;53.348;-1.496;2023-05-23T06:26:32;4.57;;;2.22;;
73919;SDS011;62266;53.348;-1.496;2023-05-23T06:29:16;5.15;;;2.08;;
73919;SDS011;62266;53.348;-1.496;2023-05-23T06:32:00;4.03;;;1.97;;
73919;SDS011;62266;53.348;-1.496;2023-05-23T06:34:44;5.03;;;2.13;;
73919;SDS011;62266;53.348;-1.496;2023-05-23T06:37:28;3.95;;;1.83;;
73919;SDS011;62266;53.348;-1.496;2023-05-23T06:40:12;5.88;;;2.05;;
73919;SDS011;62266;53.348;-1.496;2023-05-23T06:42:57;3.55;;;1.80;;
73919;SDS011;62266;53.348;-1.496;2023-05-23T06:45:41;4.17;;;1.60;;
73919;SDS011;62266;53.348;-1.496;2023-05-23T06:48:25;4.82;;;1.80;;
73919;SDS011;62266;53.348;-1.496;2023-05-23T06:51:09;3.05;;;1.60;;
73919;SDS011;62266;53.348;-1.496;2023-05-23T06:53:54;4.63;;;1.80;;
73919;SDS011;62266;53.348;-1.496;2023-05-23T06:56:39;5.60;;;1.80;;
73919;SDS011;62266;53.348;-1.496;2023-05-23T06:59:23;2.70;;;2.10;;
73919;SDS011;62266;53.348;-1.496;2023-05-23T07:02:07;5.13;;;2.08;;
73919;SDS011;62266;53.348;-1.496;2023-05-23T07:04:51;3.92;;;1.65;;
73919;SDS011;62266;53.348;-1.496;2023-05-23T07:07:35;3.08;;;1.70;;
73919;SDS011;62266;53.348;-1.496;2023-05-23T07:10:20;4.80;;;1.75;;
73919;SDS011;62266;53.348;-1.496;2023-05-23T07:13:05;4.87;;;1.80;;
73919;SDS011;62266;53.348;-1.496;2023-05-23T07:15:49;4.65;;;1.80;;
73919;SDS011;62266;53.348;-1.496;2023-05-23T07:18:33;3.92;;;1.65;;
73919;SDS011;62266;53.348;-1.496;2023-05-23T07:21:17;5.32;;;1.90;;
73919;SDS011;62266;53.348;-1.496;2023-05-23T07:24:02;3.95;;;1.52;;
73919;SDS011;62266;53.348;-1.496;2023-05-23T07:26:46;4.43;;;1.93;;
73919;SDS011;62266;53.348;-1.496;2023-05-23T07:29:31;4.97;;;1.77;;
73919;SDS011;62266;53.348;-1.496;2023-05-23T07:32:14;4.20;;;1.98;;
73919;SDS011;62266;53.348;-1.496;2023-05-23T07:34:59;5.10;;;1.75;;
73919;SDS011;62266;53.348;-1.496;2023-05-23T07:37:43;5.05;;;1.80;;
73919;SDS011;62266;53.348;-1.496;2023-05-23T07:40:28;5.23;;;1.57;;
73919;SDS011;62266;53.348;-1.496;2023-05-23T07:43:12;3.20;;;1.65;;
73919;SDS011;62266;53.348;-1.496;2023-05-23T07:45:57;5.70;;;2.35;;
73919;SDS011;62266;53.348;-1.496;2023-05-23T07:48:41;3.97;;;2.03;;
73919;SDS011;62266;53.348;-1.496;2023-05-23T07:51:26;3.45;;;1.67;;
73919;SDS011;62266;53.348;-1.496;2023-05-23T07:54:10;7.43;;;1.73;;
73919;SDS011;62266;53.348;-1.496;2023-05-23T07:56:54;6.30;;;2.05;;
73919;SDS011;62266;53.348;-1.496;2023-05-23T07:59:39;8.02;;;2.20;;
73919;SDS011;62266;53.348;-1.496;2023-05-23T08:02:23;4.90;;;1.77;;
73919;SDS011;62266;53.348;-1.496;2023-05-23T08:05:08;5.85;;;2.15;;
73919;SDS011;62266;53.348;-1.496;2023-05-23T08:07:52;8.53;;;2.60;;
73919;SDS011;62266;53.348;-1.496;2023-05-23T08:10:38;8.40;;;2.70;;
73919;SDS011;62266;53.348;-1.496;2023-05-23T08:13:22;4.05;;;1.90;;
73919;SDS011;62266;53.348;-1.496;2023-05-23T08:16:07;4.43;;;1.80;;
73919;SDS011;62266;53.348;-1.496;2023-05-23T08:18:51;5.68;;;1.95;;
73919;SDS011;62266;53.348;-1.496;2023-05-23T08:21:35;4.67;;;2.10;;
73919;SDS011;62266;53.348;-1.496;2023-05-23T08:24:19;6.38;;;1.80;;
73919;SDS011;62266;53.348;-1.496;2023-05-23T08:27:04;5.95;;;2.00;;
73919;SDS011;62266;53.348;-1.496;2023-05-23T08:29:50;5.45;;;1.60;;
73919;SDS011;62266;53.348;-1.496;2023-05-23T08:32:35;5.07;;;2.10;;
73919;SDS011;62266;53.348;-1.496;2023-05-23T08:35:19;4.73;;;1.90;;
73919;SDS011;62266;53.348;-1.496;2023-05-23T08:38:04;4.97;;;2.05;;
73919;SDS011;62266;53.348;-1.496;2023-05-23T08:40:50;5.32;;;2.13;;
73919;SDS011;62266;53.348;-1.496;2023-05-23T08:43:37;6.30;;;2.33;;
73919;SDS011;62266;53.348;-1.496;2023-05-23T08:46:24;5.88;;;1.52;;
73919;SDS011;62266;53.348;-1.496;2023-05-23T08:49:08;4.40;;;1.90;;
73919;SDS011;62266;53.348;-1.496;2023-05-23T08:51:53;4.28;;;1.70;;
73919;SDS011;62266;53.348;-1.496;2023-05-23T08:54:42;4.57;;;1.70;;
73919;SDS011;62266;53.348;-1.496;2023-05-23T08:57:27;4.90;;;1.50;;
73919;SDS011;62266;53.348;-1.496;2023-05-23T09:00:13;5.07;;;1.70;;
73919;SDS011;62266;53.348;-1.496;2023-05-23T09:02:59;3.63;;;1.43;;
73919;SDS011;62266;53.348;-1.496;2023-05-23T09:05:43;4.53;;;2.13;;
73919;SDS011;62266;53.348;-1.496;2023-05-23T09:08:27;4.82;;;1.75;;
73919;SDS011;62266;53.348;-1.496;2023-05-23T09:11:11;4.38;;;1.60;;
73919;SDS011;62266;53.348;-1.496;2023-05-23T09:13:56;4.97;;;1.70;;
73919;SDS011;62266;53.348;-1.496;2023-05-23T09:16:41;3.43;;;1.47;;
73919;SDS011;62266;53.348;-1.496;2023-05-23T09:19:29;3.85;;;1.80;;
73919;SDS011;62266;53.348;-1.496;2023-05-23T09:22:13;4.10;;;1.65;;
73919;SDS011;62266;53.348;-1.496;2023-05-23T09:24:58;6.43;;;1.70;;
73919;SDS011;62266;53.348;-1.496;2023-05-23T09:27:43;4.32;;;1.63;;
73919;SDS011;62266;53.348;-1.496;2023-05-23T09:30:27;4.63;;;2.00;;
73919;SDS011;62266;53.348;-1.496;2023-05-23T09:33:12;5.22;;;1.75;;
73919;SDS011;62266;53.348;-1.496;2023-05-23T09:35:57;5.68;;;1.70;;
73919;SDS011;62266;53.348;-1.496;2023-05-23T09:38:43;3.63;;;1.55;;
73919;SDS011;62266;53.348;-1.496;2023-05-23T09:41:29;5.57;;;1.75;;
73919;SDS011;62266;53.348;-1.496;2023-05-23T09:44:14;4.57;;;1.90;;
73919;SDS011;62266;53.348;-1.496;2023-05-23T09:47:05;4.35;;;1.90;;
73919;SDS011;62266;53.348;-1.496;2023-05-23T09:49:49;5.22;;;1.88;;
73919;SDS011;62266;53.348;-1.496;2023-05-23T09:52:37;4.53;;;2.25;;
73919;SDS011;62266;53.348;-1.496;2023-05-23T09:55:21;5.50;;;2.13;;
73919;SDS011;62266;53.348;-1.496;2023-05-23T09:58:05;5.63;;;1.77;;
73919;SDS011;62266;53.348;-1.496;2023-05-23T10:00:50;6.50;;;2.05;;
73919;SDS011;62266;53.348;-1.496;2023-05-23T10:03:49;5.95;;;1.88;;
73919;SDS011;62266;53.348;-1.496;2023-05-23T10:06:43;6.45;;;1.92;;
73919;SDS011;62266;53.348;-1.496;2023-05-23T10:09:32;5.20;;;2.20;;
73919;SDS011;62266;53.348;-1.496;2023-05-23T10:15:22;5.90;;;1.95;;
73919;SDS011;62266;53.348;-1.496;2023-05-23T10:21:01;6.32;;;2.28;;
73919;SDS011;62266;53.348;-1.496;2023-05-23T10:23:50;5.28;;;2.67;;
73919;SDS011;62266;53.348;-1.496;2023-05-23T10:26:35;4.67;;;2.57;;
73919;SDS011;62266;53.348;-1.496;2023-05-23T10:29:20;4.53;;;2.00;;
73919;SDS011;62266;53.348;-1.496;2023-05-23T10:32:05;3.58;;;1.90;;
73919;SDS011;62266;53.348;-1.496;2023-05-23T10:37:38;4.05;;;2.05;;
73919;SDS011;62266;53.348;-1.496;2023-05-23T10:40:30;4.27;;;2.03;;
73919;SDS011;62266;53.348;-1.496;2023-05-23T10:43:19;6.18;;;2.00;;
73919;SDS011;62266;53.348;-1.496;2023-05-23T10:46:11;4.45;;;2.05;;
73919;SDS011;62266;53.348;-1.496;2023-05-23T10:48:56;4.75;;;1.80;;
73919;SDS011;62266;53.348;-1.496;2023-05-23T10:51:40;4.93;;;2.05;;
73919;SDS011;62266;53.348;-1.496;2023-05-23T10:54:24;3.23;;;2.10;;
73919;SDS011;62266;53.348;-1.496;2023-05-23T10:57:09;5.60;;;2.17;;
73919;SDS011;62266;53.348;-1.496;2023-05-23T10:59:54;5.05;;;2.40;;
73919;SDS011;62266;53.348;-1.496;2023-05-23T11:02:40;5.53;;;2.53;;
73919;SDS011;62266;53.348;-1.496;2023-05-23T11:05:30;5.30;;;2.10;;
73919;SDS011;62266;53.348;-1.496;2023-05-23T11:08:16;7.77;;;2.20;;
73919;SDS011;62266;53.348;-1.496;2023-05-23T11:11:03;4.57;;;2.20;;
73919;SDS011;62266;53.348;-1.496;2023-05-23T11:16:39;5.13;;;2.50;;
73919;SDS011;62266;53.348;-1.496;2023-05-23T11:19:27;4.75;;;2.60;;
73919;SDS011;62266;53.348;-1.496;2023-05-23T11:22:27;8.30;;;3.03;;
73919;SDS011;62266;53.348;-1.496;2023-05-23T11:25:13;5.40;;;2.83;;
73919;SDS011;62266;53.348;-1.496;2023-05-23T11:27:59;6.88;;;3.13;;
73919;SDS011;62266;53.348;-1.496;2023-05-23T11:30:47;8.38;;;2.60;;
73919;SDS011;62266;53.348;-1.496;2023-05-23T11:33:32;4.68;;;2.60;;
73919;SDS011;62266;53.348;-1.496;2023-05-23T11:36:16;6.67;;;2.80;;
73919;SDS011;62266;53.348;-1.496;2023-05-23T11:39:22;5.35;;;2.95;;
73919;SDS011;62266;53.348;-1.496;2023-05-23T11:42:06;8.00;;;3.85;;
73919;SDS011;62266;53.348;-1.496;2023-05-23T11:44:50;4.50;;;3.20;;
73919;SDS011;62266;53.348;-1.496;2023-05-23T11:47:41;6.07;;;3.30;;
73919;SDS011;62266;53.348;-1.496;2023-05-23T11:50:25;10.13;;;3.17;;
73919;SDS011;62266;53.348;-1.496;2023-05-23T11:53:10;6.07;;;3.53;;
73919;SDS011;62266;53.348;-1.496;2023-05-23T11:55:57;7.20;;;3.47;;
73919;SDS011;62266;53.348;-1.496;2023-05-23T11:58:42;8.27;;;3.33;;
73919;SDS011;62266;53.348;-1.496;2023-05-23T12:01:27;8.38;;;3.90;;
73919;SDS011;62266;53.348;-1.496;2023-05-23T12:04:14;8.87;;;3.67;;
73919;SDS011;62266;53.348;-1.496;2023-05-23T12:06:58;7.30;;;3.40;;
73919;SDS011;62266;53.348;-1.496;2023-05-23T12:09:42;6.47;;;3.30;;
73919;SDS011;62266;53.348;-1.496;2023-05-23T12:12:27;5.25;;;3.13;;
73919;SDS011;62266;53.348;-1.496;2023-05-23T12:15:11;7.22;;;3.10;;
73919;SDS011;62266;53.348;-1.496;2023-05-23T12:17:55;6.20;;;3.10;;
73919;SDS011;62266;53.348;-1.496;2023-05-23T12:20:40;8.68;;;3.28;;
73919;SDS011;62266;53.348;-1.496;2023-05-23T12:23:24;6.63;;;3.38;;
73919;SDS011;62266;53.348;-1.496;2023-05-23T12:26:10;6.13;;;3.63;;
73919;SDS011;62266;53.348;-1.496;2023-05-23T12:28:53;6.45;;;3.53;;
73919;SDS011;62266;53.348;-1.496;2023-05-23T12:31:38;6.70;;;3.40;;
73919;SDS011;62266;53.348;-1.496;2023-05-23T12:34:22;5.38;;;3.28;;
73919;SDS011;62266;53.348;-1.496;2023-05-23T12:37:07;5.28;;;3.58;;
73919;SDS011;62266;53.348;-1.496;2023-05-23T12:39:51;6.78;;;3.55;;
73919;SDS011;62266;53.348;-1.496;2023-05-23T12:45:37;6.63;;;4.20;;
73919;SDS011;62266;53.348;-1.496;2023-05-23T12:48:21;7.80;;;4.25;;
73919;SDS011;62266;53.348;-1.496;2023-05-23T12:51:08;5.97;;;3.85;;
73919;SDS011;62266;53.348;-1.496;2023-05-23T12:53:52;8.70;;;3.60;;
73919;SDS011;62266;53.348;-1.496;2023-05-23T12:56:37;5.93;;;3.95;;
73919;SDS011;62266;53.348;-1.496;2023-05-23T12:59:21;5.63;;;3.50;;
73919;SDS011;62266;53.348;-1.496;2023-05-23T13:02:05;6.85;;;3.75;;
73919;SDS011;62266;53.348;-1.496;2023-05-23T13:04:49;5.88;;;3.97;;
73919;SDS011;62266;53.348;-1.496;2023-05-23T13:07:34;4.75;;;3.78;;
73919;SDS011;62266;53.348;-1.496;2023-05-23T13:10:18;6.13;;;3.78;;
73919;SDS011;62266;53.348;-1.496;2023-05-23T13:13:02;7.20;;;3.73;;
73919;SDS011;62266;53.348;-1.496;2023-05-23T13:15:46;8.02;;;3.78;;
73919;SDS011;62266;53.348;-1.496;2023-05-23T13:18:31;8.48;;;4.03;;
73919;SDS011;62266;53.348;-1.496;2023-05-23T13:21:15;6.07;;;3.90;;
73919;SDS011;62266;53.348;-1.496;2023-05-23T13:23:59;6.55;;;3.92;;
73919;SDS011;62266;53.348;-1.496;2023-05-23T13:26:43;5.80;;;3.83;;
73919;SDS011;62266;53.348;-1.496;2023-05-23T13:29:27;8.55;;;4.25;;
73919;SDS011;62266;53.348;-1.496;2023-05-23T13:32:11;6.95;;;4.10;;
73919;SDS011;62266;53.348;-1.496;2023-05-23T13:34:55;7.07;;;3.95;;
73919;SDS011;62266;53.348;-1.496;2023-05-23T13:37:42;6.38;;;3.53;;
73919;SDS011;62266;53.348;-1.496;2023-05-23T13:40:26;6.17;;;3.70;;
73919;SDS011;62266;53.348;-1.496;2023-05-23T13:43:10;5.47;;;3.75;;
73919;SDS011;62266;53.348;-1.496;2023-05-23T13:45:54;7.03;;;3.50;;
73919;SDS011;62266;53.348;-1.496;2023-05-23T13:48:38;5.95;;;3.75;;
73919;SDS011;62266;53.348;-1.496;2023-05-23T13:51:23;7.13;;;4.40;;
73919;SDS011;62266;53.348;-1.496;2023-05-23T13:54:07;9.53;;;4.63;;
73919;SDS011;62266;53.348;-1.496;2023-05-23T13:56:51;9.25;;;4.90;;
73919;SDS011;62266;53.348;-1.496;2023-05-23T13:59:35;7.25;;;5.00;;
73919;SDS011;62266;53.348;-1.496;2023-05-23T14:02:19;8.10;;;5.00;;
73919;SDS011;62266;53.348;-1.496;2023-05-23T14:05:05;8.73;;;5.50;;
73919;SDS011;62266;53.348;-1.496;2023-05-23T14:07:51;11.23;;;6.00;;
73919;SDS011;62266;53.348;-1.496;2023-05-23T14:10:35;10.50;;;5.70;;
73919;SDS011;62266;53.348;-1.496;2023-05-23T14:13:19;9.45;;;5.28;;
73919;SDS011;62266;53.348;-1.496;2023-05-23T14:16:04;10.75;;;5.53;;
73919;SDS011;62266;53.348;-1.496;2023-05-23T14:18:49;10.43;;;5.55;;
73919;SDS011;62266;53.348;-1.496;2023-05-23T14:21:33;8.97;;;5.40;;
73919;SDS011;62266;53.348;-1.496;2023-05-23T14:24:17;8.75;;;5.45;;
73919;SDS011;62266;53.348;-1.496;2023-05-23T14:27:01;9.93;;;5.75;;
73919;SDS011;62266;53.348;-1.496;2023-05-23T14:29:47;8.68;;;5.32;;
73919;SDS011;62266;53.348;-1.496;2023-05-23T14:32:32;9.98;;;5.32;;
73919;SDS011;62266;53.348;-1.496;2023-05-23T14:35:21;7.47;;;4.63;;
73919;SDS011;62266;53.348;-1.496;2023-05-23T14:38:08;7.45;;;4.80;;
73919;SDS011;62266;53.348;-1.496;2023-05-23T14:40:52;8.07;;;5.15;;
73919;SDS011;62266;53.348;-1.496;2023-05-23T14:43:37;8.35;;;5.10;;
73919;SDS011;62266;53.348;-1.496;2023-05-23T14:46:22;8.82;;;4.65;;
73919;SDS011;62266;53.348;-1.496;2023-05-23T14:49:09;8.70;;;4.67;;
73919;SDS011;62266;53.348;-1.496;2023-05-23T14:51:53;8.80;;;5.13;;
73919;SDS011;62266;53.348;-1.496;2023-05-23T14:54:41;11.23;;;5.18;;
73919;SDS011;62266;53.348;-1.496;2023-05-23T14:57:26;6.75;;;4.45;;
73919;SDS011;62266;53.348;-1.496;2023-05-23T15:00:11;8.15;;;4.45;;
73919;SDS011;62266;53.348;-1.496;2023-05-23T15:02:56;9.90;;;4.47;;
73919;SDS011;62266;53.348;-1.496;2023-05-23T15:05:40;7.05;;;4.45;;
73919;SDS011;62266;53.348;-1.496;2023-05-23T15:08:24;13.13;;;4.72;;
73919;SDS011;62266;53.348;-1.496;2023-05-23T15:11:08;8.73;;;4.38;;
73919;SDS011;62266;53.348;-1.496;2023-05-23T15:13:56;9.88;;;5.05;;
73919;SDS011;62266;53.348;-1.496;2023-05-23T15:16:43;6.57;;;4.20;;
73919;SDS011;62266;53.348;-1.496;2023-05-23T15:19:28;10.52;;;4.55;;
73919;SDS011;62266;53.348;-1.496;2023-05-23T15:22:12;9.10;;;3.80;;
73919;SDS011;62266;53.348;-1.496;2023-05-23T15:24:57;8.27;;;3.30;;
73919;SDS011;62266;53.348;-1.496;2023-05-23T15:27:43;8.13;;;3.20;;
73919;SDS011;62266;53.348;-1.496;2023-05-23T15:30:27;6.93;;;3.00;;
73919;SDS011;62266;53.348;-1.496;2023-05-23T15:33:12;5.43;;;3.05;;
73919;SDS011;62266;53.348;-1.496;2023-05-23T15:35:58;6.50;;;3.15;;
73919;SDS011;62266;53.348;-1.496;2023-05-23T15:38:46;6.82;;;2.97;;
73919;SDS011;62266;53.348;-1.496;2023-05-23T15:41:33;8.35;;;2.63;;
73919;SDS011;62266;53.348;-1.496;2023-05-23T15:44:17;7.33;;;2.77;;
73919;SDS011;62266;53.348;-1.496;2023-05-23T15:47:10;7.25;;;2.90;;
73919;SDS011;62266;53.348;-1.496;2023-05-23T15:49:54;8.27;;;2.83;;
73919;SDS011;62266;53.348;-1.496;2023-05-23T15:52:39;8.32;;;2.88;;
73919;SDS011;62266;53.348;-1.496;2023-05-23T15:55:23;6.57;;;2.60;;
73919;SDS011;62266;53.348;-1.496;2023-05-23T15:58:11;5.80;;;2.53;;
73919;SDS011;62266;53.348;-1.496;2023-05-23T16:00:56;7.50;;;2.30;;
73919;SDS011;62266;53.348;-1.496;2023-05-23T16:03:41;9.50;;;2.50;;
73919;SDS011;62266;53.348;-1.496;2023-05-23T16:06:25;8.13;;;2.55;;
73919;SDS011;62266;53.348;-1.496;2023-05-23T16:09:10;4.78;;;2.13;;
73919;SDS011;62266;53.348;-1.496;2023-05-23T16:11:55;4.83;;;2.20;;
73919;SDS011;62266;53.348;-1.496;2023-05-23T16:14:40;5.82;;;2.20;;
73919;SDS011;62266;53.348;-1.496;2023-05-23T16:17:25;6.32;;;2.53;;
73919;SDS011;62266;53.348;-1.496;2023-05-23T16:20:09;9.68;;;2.20;;
73919;SDS011;62266;53.348;-1.496;2023-05-23T16:22:54;4.70;;;2.00;;
73919;SDS011;62266;53.348;-1.496;2023-05-23T16:25:38;5.40;;;2.20;;
73919;SDS011;62266;53.348;-1.496;2023-05-23T16:28:25;7.15;;;2.75;;
73919;SDS011;62266;53.348;-1.496;2023-05-23T16:31:13;5.28;;;2.00;;
73919;SDS011;62266;53.348;-1.496;2023-05-23T16:33:59;5.95;;;2.08;;
73919;SDS011;62266;53.348;-1.496;2023-05-23T16:36:43;8.63;;;2.10;;
73919;SDS011;62266;53.348;-1.496;2023-05-23T16:39:27;6.07;;;2.07;;
73919;SDS011;62266;53.348;-1.496;2023-05-23T16:42:12;5.38;;;2.05;;
73919;SDS011;62266;53.348;-1.496;2023-05-23T16:44:56;6.10;;;2.20;;
73919;SDS011;62266;53.348;-1.496;2023-05-23T16:47:43;5.15;;;1.90;;
73919;SDS011;62266;53.348;-1.496;2023-05-23T16:50:28;5.40;;;2.05;;
73919;SDS011;62266;53.348;-1.496;2023-05-23T16:53:15;6.90;;;2.80;;
73919;SDS011;62266;53.348;-1.496;2023-05-23T16:55:59;4.97;;;2.10;;
73919;SDS011;62266;53.348;-1.496;2023-05-23T16:58:44;5.97;;;2.25;;